sensor_id;sensor_type;location;lat;lon;timestamp;pressure;altitude;pressure_sealevel;temperature;humidity
62712;BME280;48772;55.586;37.730;2023-08-06T00:00:28;99519.41;;;24.16;100.00
62712;BME280;48772;55.586;37.730;2023-08-06T00:02:54;99523.38;;;24.20;100.00
62712;BME280;48772;55.586;37.730;2023-08-06T00:05:20;99527.56;;;24.23;100.00
62712;BME280;48772;55.586;37.730;2023-08-06T00:07:49;99504.09;;;24.09;100.00
62712;BME280;48772;55.586;37.730;2023-08-06T00:10:15;99526.75;;;24.16;100.00
62712;BME280;48772;55.586;37.730;2023-08-06T00:12:41;99533.25;;;24.15;100.00
62712;BME280;48772;55.586;37.730;2023-08-06T00:15:08;99532.19;;;24.03;100.00
62712;BME280;48772;55.586;37.730;2023-08-06T00:17:34;99491.97;;;23.85;100.00
62712;BME280;48772;55.586;37.730;2023-08-06T00:20:01;99507.91;;;23.82;100.00
62712;BME280;48772;55.586;37.730;2023-08-06T00:22:36;99529.25;;;23.91;100.00
62712;BME280;48772;55.586;37.730;2023-08-06T00:25:04;99514.59;;;23.73;100.00
62712;BME280;48772;55.586;37.730;2023-08-06T00:27:32;99526.13;;;23.75;100.00
62712;BME280;48772;55.586;37.730;2023-08-06T00:29:58;99530.94;;;23.79;100.00
62712;BME280;48772;55.586;37.730;2023-08-06T00:32:25;99525.69;;;23.71;100.00
62712;BME280;48772;55.586;37.730;2023-08-06T00:34:52;99541.59;;;23.81;100.00
62712;BME280;48772;55.586;37.730;2023-08-06T00:37:19;99523.63;;;23.67;100.00
62712;BME280;48772;55.586;37.730;2023-08-06T00:39:45;99528.84;;;23.62;100.00
62712;BME280;48772;55.586;37.730;2023-08-06T00:42:11;99546.03;;;23.69;100.00
62712;BME280;48772;55.586;37.730;2023-08-06T00:44:39;99539.50;;;23.70;100.00
62712;BME280;48772;55.586;37.730;2023-08-06T00:47:06;99533.25;;;23.63;100.00
62712;BME280;48772;55.586;37.730;2023-08-06T00:49:35;99547.69;;;23.63;100.00
62712;BME280;48772;55.586;37.730;2023-08-06T00:52:03;99534.91;;;23.51;100.00
62712;BME280;48772;55.586;37.730;2023-08-06T00:54:30;99526.94;;;23.43;100.00
62712;BME280;48772;55.586;37.730;2023-08-06T00:56:57;99524.03;;;23.38;100.00
62712;BME280;48772;55.586;37.730;2023-08-06T00:59:24;99511.22;;;23.32;100.00
62712;BME280;48772;55.586;37.730;2023-08-06T01:01:51;99516.69;;;23.25;100.00
62712;BME280;48772;55.586;37.730;2023-08-06T01:04:17;99543.03;;;23.31;100.00
62712;BME280;48772;55.586;37.730;2023-08-06T01:09:32;99540.75;;;23.35;100.00
62712;BME280;48772;55.586;37.730;2023-08-06T01:14:59;99528.81;;;23.23;100.00
62712;BME280;48772;55.586;37.730;2023-08-06T01:17:26;99544.94;;;23.31;100.00
62712;BME280;48772;55.586;37.730;2023-08-06T01:19:52;99528.13;;;23.21;100.00
62712;BME280;48772;55.586;37.730;2023-08-06T01:22:18;99518.50;;;23.12;100.00
62712;BME280;48772;55.586;37.730;2023-08-06T01:24:48;99532.56;;;23.22;100.00
62712;BME280;48772;55.586;37.730;2023-08-06T01:30:01;99512.41;;;23.03;100.00
62712;BME280;48772;55.586;37.730;2023-08-06T01:32:34;99553.88;;;23.18;100.00
62712;BME280;48772;55.586;37.730;2023-08-06T01:35:02;99523.25;;;22.97;100.00
62712;BME280;48772;55.586;37.730;2023-08-06T01:37:31;99550.91;;;23.07;100.00
62712;BME280;48772;55.586;37.730;2023-08-06T01:39:57;99560.53;;;23.09;100.00
62712;BME280;48772;55.586;37.730;2023-08-06T01:42:24;99538.56;;;22.98;100.00
62712;BME280;48772;55.586;37.730;2023-08-06T01:44:50;99545.25;;;23.02;100.00
62712;BME280;48772;55.586;37.730;2023-08-06T01:47:16;99531.00;;;23.00;100.00
62712;BME280;48772;55.586;37.730;2023-08-06T01:49:42;99549.66;;;23.09;100.00
62712;BME280;48772;55.586;37.730;2023-08-06T01:52:08;99521.56;;;22.89;100.00
62712;BME280;48772;55.586;37.730;2023-08-06T01:54:34;99571.50;;;23.22;100.00
62712;BME280;48772;55.586;37.730;2023-08-06T01:57:00;99563.69;;;23.13;100.00
62712;BME280;48772;55.586;37.730;2023-08-06T01:59:26;99509.41;;;22.79;100.00
62712;BME280;48772;55.586;37.730;2023-08-06T02:01:52;99530.34;;;22.85;100.00
62712;BME280;48772;55.586;37.730;2023-08-06T02:04:17;99548.38;;;22.99;100.00
62712;BME280;48772;55.586;37.730;2023-08-06T02:06:44;99577.53;;;23.18;100.00
62712;BME280;48772;55.586;37.730;2023-08-06T02:09:10;99555.09;;;23.03;100.00
62712;BME280;48772;55.586;37.730;2023-08-06T02:11:35;99580.03;;;23.13;100.00
62712;BME280;48772;55.586;37.730;2023-08-06T02:14:01;99548.78;;;22.96;100.00
62712;BME280;48772;55.586;37.730;2023-08-06T02:16:28;99579.22;;;23.19;100.00
62712;BME280;48772;55.586;37.730;2023-08-06T02:18:54;99580.25;;;23.18;100.00
62712;BME280;48772;55.586;37.730;2023-08-06T02:21:32;99571.88;;;23.13;100.00
62712;BME280;48772;55.586;37.730;2023-08-06T02:23:58;99559.31;;;23.12;100.00
62712;BME280;48772;55.586;37.730;2023-08-06T02:26:24;99576.09;;;23.22;100.00
62712;BME280;48772;55.586;37.730;2023-08-06T02:28:50;99580.88;;;23.20;100.00
62712;BME280;48772;55.586;37.730;2023-08-06T02:31:16;99594.53;;;23.26;100.00
62712;BME280;48772;55.586;37.730;2023-08-06T02:33:42;99589.31;;;23.25;100.00
62712;BME280;48772;55.586;37.730;2023-08-06T02:36:08;99588.47;;;23.24;100.00
62712;BME280;48772;55.586;37.730;2023-08-06T02:38:33;99583.63;;;23.20;100.00
62712;BME280;48772;55.586;37.730;2023-08-06T02:41:03;99595.19;;;23.28;100.00
62712;BME280;48772;55.586;37.730;2023-08-06T02:43:29;99558.47;;;23.18;100.00
62712;BME280;48772;55.586;37.730;2023-08-06T02:45:59;99592.69;;;23.40;100.00
62712;BME280;48772;55.586;37.730;2023-08-06T02:48:26;99577.81;;;23.29;100.00
62712;BME280;48772;55.586;37.730;2023-08-06T02:50:56;99594.13;;;23.36;100.00
62712;BME280;48772;55.586;37.730;2023-08-06T02:53:22;99570.91;;;23.27;100.00
62712;BME280;48772;55.586;37.730;2023-08-06T02:55:49;99593.13;;;23.43;100.00
62712;BME280;48772;55.586;37.730;2023-08-06T02:58:19;99596.66;;;23.44;100.00
62712;BME280;48772;55.586;37.730;2023-08-06T03:01:04;99566.91;;;23.23;100.00
62712;BME280;48772;55.586;37.730;2023-08-06T03:03:34;99578.84;;;23.28;100.00
62712;BME280;48772;55.586;37.730;2023-08-06T03:06:01;99579.47;;;23.37;100.00
62712;BME280;48772;55.586;37.730;2023-08-06T03:08:37;99583.69;;;23.46;100.00
62712;BME280;48772;55.586;37.730;2023-08-06T03:11:02;99589.78;;;23.54;100.00
62712;BME280;48772;55.586;37.730;2023-08-06T03:13:29;99572.81;;;23.59;100.00
62712;BME280;48772;55.586;37.730;2023-08-06T03:15:56;99589.38;;;23.64;100.00
62712;BME280;48772;55.586;37.730;2023-08-06T03:18:23;99560.25;;;23.51;100.00
62712;BME280;48772;55.586;37.730;2023-08-06T03:20:50;99591.25;;;23.70;100.00
62712;BME280;48772;55.586;37.730;2023-08-06T03:23:17;99586.25;;;23.67;100.00
62712;BME280;48772;55.586;37.730;2023-08-06T03:25:43;99587.50;;;23.77;100.00
62712;BME280;48772;55.586;37.730;2023-08-06T03:28:10;99574.72;;;23.71;100.00
62712;BME280;48772;55.586;37.730;2023-08-06T03:30:36;99569.06;;;23.66;100.00
62712;BME280;48772;55.586;37.730;2023-08-06T03:33:02;99580.38;;;23.70;100.00
62712;BME280;48772;55.586;37.730;2023-08-06T03:35:29;99582.69;;;23.73;100.00
62712;BME280;48772;55.586;37.730;2023-08-06T03:37:55;99592.75;;;23.79;100.00
62712;BME280;48772;55.586;37.730;2023-08-06T03:40:21;99588.75;;;23.88;100.00
62712;BME280;48772;55.586;37.730;2023-08-06T03:42:47;99571.38;;;23.82;100.00
62712;BME280;48772;55.586;37.730;2023-08-06T03:45:13;99568.44;;;23.84;100.00
62712;BME280;48772;55.586;37.730;2023-08-06T03:47:40;99586.69;;;24.03;100.00
62712;BME280;48772;55.586;37.730;2023-08-06T03:50:07;99581.03;;;24.11;100.00
62712;BME280;48772;55.586;37.730;2023-08-06T03:52:33;99588.78;;;24.20;100.00
62712;BME280;48772;55.586;37.730;2023-08-06T03:54:58;99586.88;;;24.34;100.00
62712;BME280;48772;55.586;37.730;2023-08-06T03:57:24;99554.81;;;24.23;100.00
62712;BME280;48772;55.586;37.730;2023-08-06T03:59:50;99581.84;;;24.44;100.00
62712;BME280;48772;55.586;37.730;2023-08-06T04:02:16;99566.53;;;24.30;100.00
62712;BME280;48772;55.586;37.730;2023-08-06T04:04:42;99583.91;;;24.48;100.00
62712;BME280;48772;55.586;37.730;2023-08-06T04:07:08;99581.56;;;24.58;100.00
62712;BME280;48772;55.586;37.730;2023-08-06T04:09:34;99585.16;;;24.59;100.00
62712;BME280;48772;55.586;37.730;2023-08-06T04:12:16;99578.25;;;24.63;100.00
62712;BME280;48772;55.586;37.730;2023-08-06T04:14:42;99582.19;;;24.73;100.00
62712;BME280;48772;55.586;37.730;2023-08-06T04:17:07;99574.44;;;24.77;100.00
62712;BME280;48772;55.586;37.730;2023-08-06T04:19:33;99567.25;;;24.82;100.00
62712;BME280;48772;55.586;37.730;2023-08-06T04:22:00;99579.59;;;24.91;100.00
62712;BME280;48772;55.586;37.730;2023-08-06T04:24:26;99567.19;;;24.95;100.00
62712;BME280;48772;55.586;37.730;2023-08-06T04:26:52;99575.94;;;25.10;100.00
62712;BME280;48772;55.586;37.730;2023-08-06T04:29:18;99575.91;;;25.17;100.00
62712;BME280;48772;55.586;37.730;2023-08-06T04:31:43;99561.41;;;25.16;100.00
62712;BME280;48772;55.586;37.730;2023-08-06T04:34:09;99567.03;;;25.28;100.00
62712;BME280;48772;55.586;37.730;2023-08-06T04:36:37;99557.38;;;25.32;100.00
62712;BME280;48772;55.586;37.730;2023-08-06T04:39:04;99553.59;;;25.33;100.00
62712;BME280;48772;55.586;37.730;2023-08-06T04:41:30;99571.72;;;25.52;100.00
62712;BME280;48772;55.586;37.730;2023-08-06T04:43:59;99563.44;;;25.65;100.00
62712;BME280;48772;55.586;37.730;2023-08-06T04:46:26;99540.81;;;25.58;100.00
62712;BME280;48772;55.586;37.730;2023-08-06T04:48:52;99568.56;;;25.86;100.00
62712;BME280;48772;55.586;37.730;2023-08-06T04:51:18;99563.84;;;25.93;100.00
62712;BME280;48772;55.586;37.730;2023-08-06T04:53:43;99552.53;;;25.90;100.00
62712;BME280;48772;55.586;37.730;2023-08-06T04:56:09;99554.81;;;25.93;100.00
62712;BME280;48772;55.586;37.730;2023-08-06T04:58:35;99566.06;;;26.09;100.00
62712;BME280;48772;55.586;37.730;2023-08-06T05:01:01;99568.50;;;26.17;100.00
62712;BME280;48772;55.586;37.730;2023-08-06T05:03:27;99560.66;;;26.21;100.00
62712;BME280;48772;55.586;37.730;2023-08-06T05:05:52;99544.53;;;26.19;100.00
62712;BME280;48772;55.586;37.730;2023-08-06T05:08:18;99554.78;;;26.42;100.00
62712;BME280;48772;55.586;37.730;2023-08-06T05:10:45;99548.63;;;26.46;100.00
62712;BME280;48772;55.586;37.730;2023-08-06T05:13:11;99547.13;;;26.50;100.00
62712;BME280;48772;55.586;37.730;2023-08-06T05:15:37;99536.94;;;26.57;100.00
62712;BME280;48772;55.586;37.730;2023-08-06T05:18:04;99547.91;;;26.75;100.00
62712;BME280;48772;55.586;37.730;2023-08-06T05:20:30;99550.47;;;26.88;100.00
62712;BME280;48772;55.586;37.730;2023-08-06T05:22:56;99548.03;;;26.98;100.00
62712;BME280;48772;55.586;37.730;2023-08-06T05:25:21;99544.50;;;27.09;100.00
62712;BME280;48772;55.586;37.730;2023-08-06T05:27:47;99529.59;;;27.05;100.00
62712;BME280;48772;55.586;37.730;2023-08-06T05:30:13;99536.28;;;27.27;100.00
62712;BME280;48772;55.586;37.730;2023-08-06T05:32:39;99526.69;;;27.36;100.00
62712;BME280;48772;55.586;37.730;2023-08-06T05:35:05;99543.03;;;27.54;100.00
62712;BME280;48772;55.586;37.730;2023-08-06T05:37:31;99543.06;;;27.66;100.00
62712;BME280;48772;55.586;37.730;2023-08-06T05:39:57;99515.31;;;27.62;100.00
62712;BME280;48772;55.586;37.730;2023-08-06T05:42:23;99540.47;;;27.82;100.00
62712;BME280;48772;55.586;37.730;2023-08-06T05:44:49;99543.03;;;27.95;100.00
62712;BME280;48772;55.586;37.730;2023-08-06T05:47:15;99541.13;;;28.07;100.00
62712;BME280;48772;55.586;37.730;2023-08-06T05:49:41;99540.03;;;28.20;100.00
62712;BME280;48772;55.586;37.730;2023-08-06T05:52:06;99522.75;;;28.19;100.00
62712;BME280;48772;55.586;37.730;2023-08-06T05:54:34;99533.59;;;28.38;100.00
62712;BME280;48772;55.586;37.730;2023-08-06T05:57:00;99515.38;;;28.32;100.00
62712;BME280;48772;55.586;37.730;2023-08-06T05:59:25;99532.44;;;28.45;100.00
62712;BME280;48772;55.586;37.730;2023-08-06T06:01:51;99503.78;;;28.41;100.00
62712;BME280;48772;55.586;37.730;2023-08-06T06:04:17;99531.69;;;28.61;100.00
62712;BME280;48772;55.586;37.730;2023-08-06T06:06:43;99536.53;;;28.71;100.00
62712;BME280;48772;55.586;37.730;2023-08-06T06:09:08;99531.28;;;28.81;100.00
62712;BME280;48772;55.586;37.730;2023-08-06T06:11:34;99529.00;;;28.78;100.00
62712;BME280;48772;55.586;37.730;2023-08-06T06:14:00;99522.81;;;28.82;100.00
62712;BME280;48772;55.586;37.730;2023-08-06T06:16:26;99529.06;;;28.94;100.00
62712;BME280;48772;55.586;37.730;2023-08-06T06:18:52;99511.88;;;28.99;100.00
62712;BME280;48772;55.586;37.730;2023-08-06T06:21:20;99522.88;;;28.99;100.00
62712;BME280;48772;55.586;37.730;2023-08-06T06:23:46;99502.09;;;29.03;100.00
62712;BME280;48772;55.586;37.730;2023-08-06T06:26:12;99506.66;;;29.25;100.00
62712;BME280;48772;55.586;37.730;2023-08-06T06:28:38;99517.00;;;29.35;100.00
62712;BME280;48772;55.586;37.730;2023-08-06T06:31:04;99509.69;;;29.40;100.00
62712;BME280;48772;55.586;37.730;2023-08-06T06:33:30;99508.69;;;29.46;100.00
62712;BME280;48772;55.586;37.730;2023-08-06T06:35:56;99495.78;;;29.47;100.00
62712;BME280;48772;55.586;37.730;2023-08-06T06:38:21;99505.66;;;29.76;100.00
62712;BME280;48772;55.586;37.730;2023-08-06T06:40:57;99507.41;;;29.98;100.00
62712;BME280;48772;55.586;37.730;2023-08-06T06:43:23;99502.72;;;29.99;100.00
62712;BME280;48772;55.586;37.730;2023-08-06T06:45:55;99502.88;;;30.09;100.00
62712;BME280;48772;55.586;37.730;2023-08-06T06:48:21;99512.72;;;30.05;100.00
62712;BME280;48772;55.586;37.730;2023-08-06T06:50:47;99510.72;;;30.17;100.00
62712;BME280;48772;55.586;37.730;2023-08-06T06:53:14;99472.81;;;30.19;100.00
62712;BME280;48772;55.586;37.730;2023-08-06T06:55:40;99495.81;;;30.51;100.00
62712;BME280;48772;55.586;37.730;2023-08-06T06:58:05;99484.38;;;30.59;100.00
62712;BME280;48772;55.586;37.730;2023-08-06T07:00:31;99499.66;;;30.71;100.00
62712;BME280;48772;55.586;37.730;2023-08-06T07:02:57;99490.59;;;30.71;100.00
62712;BME280;48772;55.586;37.730;2023-08-06T07:05:23;99490.22;;;30.67;100.00
62712;BME280;48772;55.586;37.730;2023-08-06T07:07:48;99485.13;;;30.54;100.00
62712;BME280;48772;55.586;37.730;2023-08-06T07:10:14;99499.59;;;30.66;100.00
62712;BME280;48772;55.586;37.730;2023-08-06T07:12:40;99498.91;;;30.76;100.00
62712;BME280;48772;55.586;37.730;2023-08-06T07:15:06;99481.81;;;30.74;100.00
62712;BME280;48772;55.586;37.730;2023-08-06T07:17:32;99486.53;;;31.00;100.00
62712;BME280;48772;55.586;37.730;2023-08-06T07:19:58;99490.66;;;30.97;100.00
62712;BME280;48772;55.586;37.730;2023-08-06T07:22:24;99489.34;;;31.05;100.00
62712;BME280;48772;55.586;37.730;2023-08-06T07:24:50;99482.06;;;30.94;100.00
62712;BME280;48772;55.586;37.730;2023-08-06T07:27:15;99479.06;;;31.22;100.00
62712;BME280;48772;55.586;37.730;2023-08-06T07:29:41;99471.25;;;31.41;100.00
62712;BME280;48772;55.586;37.730;2023-08-06T07:32:07;99491.28;;;31.31;100.00
62712;BME280;48772;55.586;37.730;2023-08-06T07:34:33;99473.22;;;31.40;100.00
62712;BME280;48772;55.586;37.730;2023-08-06T07:36:59;99473.47;;;31.39;100.00
62712;BME280;48772;55.586;37.730;2023-08-06T07:39:25;99459.84;;;31.27;100.00
62712;BME280;48772;55.586;37.730;2023-08-06T07:41:51;99465.13;;;31.34;100.00
62712;BME280;48772;55.586;37.730;2023-08-06T07:44:17;99488.22;;;31.54;100.00
62712;BME280;48772;55.586;37.730;2023-08-06T07:46:42;99478.28;;;31.53;100.00
62712;BME280;48772;55.586;37.730;2023-08-06T07:49:09;99474.25;;;31.66;100.00
62712;BME280;48772;55.586;37.730;2023-08-06T07:51:36;99490.25;;;31.95;100.00
62712;BME280;48772;55.586;37.730;2023-08-06T07:54:02;99473.16;;;31.98;100.00
62712;BME280;48772;55.586;37.730;2023-08-06T07:56:29;99468.50;;;32.04;100.00
62712;BME280;48772;55.586;37.730;2023-08-06T07:58:54;99471.69;;;32.27;100.00
62712;BME280;48772;55.586;37.730;2023-08-06T08:01:20;99476.53;;;32.52;100.00
62712;BME280;48772;55.586;37.730;2023-08-06T08:03:46;99465.72;;;32.45;100.00
62712;BME280;48772;55.586;37.730;2023-08-06T08:06:12;99460.19;;;32.40;100.00
62712;BME280;48772;55.586;37.730;2023-08-06T08:08:37;99464.41;;;32.58;100.00
62712;BME280;48772;55.586;37.730;2023-08-06T08:11:05;99465.25;;;32.58;100.00
62712;BME280;48772;55.586;37.730;2023-08-06T08:13:31;99466.41;;;32.72;100.00
62712;BME280;48772;55.586;37.730;2023-08-06T08:15:58;99450.38;;;32.69;100.00
62712;BME280;48772;55.586;37.730;2023-08-06T08:18:24;99454.66;;;32.40;100.00
62712;BME280;48772;55.586;37.730;2023-08-06T08:20:51;99451.03;;;32.35;100.00
62712;BME280;48772;55.586;37.730;2023-08-06T08:23:17;99442.03;;;32.54;100.00
62712;BME280;48772;55.586;37.730;2023-08-06T08:25:43;99453.13;;;32.69;100.00
62712;BME280;48772;55.586;37.730;2023-08-06T08:28:09;99458.13;;;32.77;100.00
62712;BME280;48772;55.586;37.730;2023-08-06T08:30:35;99454.56;;;32.82;100.00
62712;BME280;48772;55.586;37.730;2023-08-06T08:33:00;99449.38;;;32.95;100.00
62712;BME280;48772;55.586;37.730;2023-08-06T08:35:26;99439.47;;;33.24;100.00
62712;BME280;48772;55.586;37.730;2023-08-06T08:37:52;99429.00;;;33.36;100.00
62712;BME280;48772;55.586;37.730;2023-08-06T08:40:18;99438.13;;;33.32;100.00
62712;BME280;48772;55.586;37.730;2023-08-06T08:42:45;99416.28;;;33.35;100.00
62712;BME280;48772;55.586;37.730;2023-08-06T08:45:13;99446.97;;;33.34;100.00
62712;BME280;48772;55.586;37.730;2023-08-06T08:47:42;99447.53;;;33.46;100.00
62712;BME280;48772;55.586;37.730;2023-08-06T08:50:09;99436.19;;;33.62;100.00
62712;BME280;48772;55.586;37.730;2023-08-06T08:52:38;99424.31;;;33.37;100.00
62712;BME280;48772;55.586;37.730;2023-08-06T08:55:04;99435.66;;;33.60;100.00
62712;BME280;48772;55.586;37.730;2023-08-06T08:57:32;99448.38;;;33.46;100.00
62712;BME280;48772;55.586;37.730;2023-08-06T08:59:58;99429.25;;;33.25;100.00
62712;BME280;48772;55.586;37.730;2023-08-06T09:02:25;99441.97;;;33.21;100.00
62712;BME280;48772;55.586;37.730;2023-08-06T09:04:56;99434.53;;;33.26;100.00
62712;BME280;48772;55.586;37.730;2023-08-06T09:07:26;99431.22;;;33.34;100.00
62712;BME280;48772;55.586;37.730;2023-08-06T09:09:53;99412.69;;;33.35;100.00
62712;BME280;48772;55.586;37.730;2023-08-06T09:12:20;99421.50;;;33.82;100.00
62712;BME280;48772;55.586;37.730;2023-08-06T09:14:46;99418.44;;;34.19;100.00
62712;BME280;48772;55.586;37.730;2023-08-06T09:17:13;99434.81;;;34.00;100.00
62712;BME280;48772;55.586;37.730;2023-08-06T09:19:42;99418.75;;;33.97;100.00
62712;BME280;48772;55.586;37.730;2023-08-06T09:22:12;99422.91;;;33.95;100.00
62712;BME280;48772;55.586;37.730;2023-08-06T09:24:41;99428.97;;;34.07;100.00
62712;BME280;48772;55.586;37.730;2023-08-06T09:27:16;99429.59;;;33.89;100.00
62712;BME280;48772;55.586;37.730;2023-08-06T09:29:43;99417.28;;;34.35;100.00
62712;BME280;48772;55.586;37.730;2023-08-06T09:32:09;99410.38;;;34.22;100.00
62712;BME280;48772;55.586;37.730;2023-08-06T09:34:35;99433.13;;;34.14;100.00
62712;BME280;48772;55.586;37.730;2023-08-06T09:37:01;99411.00;;;33.99;100.00
62712;BME280;48772;55.586;37.730;2023-08-06T09:39:29;99396.34;;;33.94;100.00
62712;BME280;48772;55.586;37.730;2023-08-06T09:41:59;99430.59;;;34.38;100.00
62712;BME280;48772;55.586;37.730;2023-08-06T09:44:27;99413.13;;;34.37;100.00
62712;BME280;48772;55.586;37.730;2023-08-06T09:47:02;99416.06;;;34.66;100.00
62712;BME280;48772;55.586;37.730;2023-08-06T09:51:58;99403.41;;;34.98;100.00
62712;BME280;48772;55.586;37.730;2023-08-06T09:54:26;99412.72;;;34.64;100.00
62712;BME280;48772;55.586;37.730;2023-08-06T09:56:54;99406.63;;;34.67;100.00
62712;BME280;48772;55.586;37.730;2023-08-06T09:59:20;99399.16;;;34.62;100.00
62712;BME280;48772;55.586;37.730;2023-08-06T10:01:46;99401.13;;;34.57;100.00
62712;BME280;48772;55.586;37.730;2023-08-06T10:04:14;99373.56;;;34.80;100.00
62712;BME280;48772;55.586;37.730;2023-08-06T10:06:43;99394.38;;;34.83;100.00
62712;BME280;48772;55.586;37.730;2023-08-06T10:09:11;99368.59;;;34.77;100.00
62712;BME280;48772;55.586;37.730;2023-08-06T10:11:39;99376.63;;;34.79;100.00
62712;BME280;48772;55.586;37.730;2023-08-06T10:14:33;99399.28;;;34.96;100.00
62712;BME280;48772;55.586;37.730;2023-08-06T10:17:01;99384.84;;;35.37;100.00
62712;BME280;48772;55.586;37.730;2023-08-06T10:19:27;99343.75;;;35.44;100.00
62712;BME280;48772;55.586;37.730;2023-08-06T10:22:14;99369.41;;;35.21;100.00
62712;BME280;48772;55.586;37.730;2023-08-06T10:24:56;99371.63;;;34.22;100.00
62712;BME280;48772;55.586;37.730;2023-08-06T10:27:31;99370.91;;;33.87;100.00
62712;BME280;48772;55.586;37.730;2023-08-06T10:32:52;99372.06;;;35.03;100.00
62712;BME280;48772;55.586;37.730;2023-08-06T10:35:34;99360.53;;;34.86;100.00
62712;BME280;48772;55.586;37.730;2023-08-06T10:38:21;99365.84;;;35.16;100.00
62712;BME280;48772;55.586;37.730;2023-08-06T10:43:37;99354.34;;;34.99;100.00
62712;BME280;48772;55.586;37.730;2023-08-06T10:46:13;99348.19;;;35.40;100.00
62712;BME280;48772;55.586;37.730;2023-08-06T10:48:46;99333.06;;;35.23;100.00
62712;BME280;48772;55.586;37.730;2023-08-06T10:51:13;99343.41;;;35.51;100.00
62712;BME280;48772;55.586;37.730;2023-08-06T10:53:45;99383.78;;;35.33;100.00
62712;BME280;48772;55.586;37.730;2023-08-06T10:56:15;99380.69;;;35.35;100.00
62712;BME280;48772;55.586;37.730;2023-08-06T10:58:42;99356.16;;;35.13;100.00
62712;BME280;48772;55.586;37.730;2023-08-06T11:01:09;99343.94;;;35.19;100.00
62712;BME280;48772;55.586;37.730;2023-08-06T11:03:36;99334.03;;;34.65;100.00
62712;BME280;48772;55.586;37.730;2023-08-06T11:06:02;99347.13;;;34.54;100.00
62712;BME280;48772;55.586;37.730;2023-08-06T11:08:33;99350.03;;;34.78;100.00
62712;BME280;48772;55.586;37.730;2023-08-06T11:11:12;99349.41;;;34.42;100.00
62712;BME280;48772;55.586;37.730;2023-08-06T11:13:46;99342.53;;;34.25;100.00
62712;BME280;48772;55.586;37.730;2023-08-06T11:16:22;99352.34;;;34.61;100.00
62712;BME280;48772;55.586;37.730;2023-08-06T11:18:50;99346.16;;;34.84;100.00
62712;BME280;48772;55.586;37.730;2023-08-06T11:21:22;99342.53;;;35.22;100.00
62712;BME280;48772;55.586;37.730;2023-08-06T11:23:51;99341.66;;;35.26;100.00
62712;BME280;48772;55.586;37.730;2023-08-06T11:26:20;99344.06;;;35.38;100.00
62712;BME280;48772;55.586;37.730;2023-08-06T11:28:47;99335.06;;;35.51;100.00
62712;BME280;48772;55.586;37.730;2023-08-06T11:31:20;99334.19;;;35.22;100.00
62712;BME280;48772;55.586;37.730;2023-08-06T11:33:46;99329.28;;;35.14;100.00
62712;BME280;48772;55.586;37.730;2023-08-06T11:36:12;99333.50;;;35.06;100.00
62712;BME280;48772;55.586;37.730;2023-08-06T11:38:37;99337.16;;;34.97;100.00
62712;BME280;48772;55.586;37.730;2023-08-06T11:41:03;99318.69;;;35.21;100.00
62712;BME280;48772;55.586;37.730;2023-08-06T11:43:30;99338.88;;;35.26;100.00
62712;BME280;48772;55.586;37.730;2023-08-06T11:45:56;99318.34;;;35.27;100.00
62712;BME280;48772;55.586;37.730;2023-08-06T11:48:22;99326.38;;;35.57;100.00
62712;BME280;48772;55.586;37.730;2023-08-06T11:50:48;99332.06;;;35.14;100.00
62712;BME280;48772;55.586;37.730;2023-08-06T11:53:14;99325.53;;;35.28;100.00
62712;BME280;48772;55.586;37.730;2023-08-06T11:55:41;99314.97;;;35.35;100.00
62712;BME280;48772;55.586;37.730;2023-08-06T11:58:09;99325.59;;;35.23;100.00
62712;BME280;48772;55.586;37.730;2023-08-06T12:00:36;99316.97;;;35.25;100.00
62712;BME280;48772;55.586;37.730;2023-08-06T12:03:04;99321.84;;;35.43;100.00
62712;BME280;48772;55.586;37.730;2023-08-06T12:05:31;99314.72;;;35.32;100.00
62712;BME280;48772;55.586;37.730;2023-08-06T12:08:00;99273.28;;;34.73;100.00
62712;BME280;48772;55.586;37.730;2023-08-06T12:10:29;99314.72;;;35.32;100.00
62712;BME280;48772;55.586;37.730;2023-08-06T12:12:55;99314.28;;;35.15;100.00
62712;BME280;48772;55.586;37.730;2023-08-06T12:15:22;99315.50;;;35.37;100.00
62712;BME280;48772;55.586;37.730;2023-08-06T12:17:49;99285.19;;;34.84;100.00
62712;BME280;48772;55.586;37.730;2023-08-06T12:20:15;99296.25;;;34.30;100.00
62712;BME280;48772;55.586;37.730;2023-08-06T12:22:41;99301.19;;;34.87;100.00
62712;BME280;48772;55.586;37.730;2023-08-06T12:25:08;99309.19;;;35.27;100.00
62712;BME280;48772;55.586;37.730;2023-08-06T12:27:38;99289.13;;;35.06;100.00
62712;BME280;48772;55.586;37.730;2023-08-06T12:30:05;99287.38;;;34.82;100.00
62712;BME280;48772;55.586;37.730;2023-08-06T12:32:35;99298.97;;;34.89;100.00
62712;BME280;48772;55.586;37.730;2023-08-06T12:35:03;99284.31;;;34.40;100.00
62712;BME280;48772;55.586;37.730;2023-08-06T12:37:33;99275.38;;;33.99;100.00
62712;BME280;48772;55.586;37.730;2023-08-06T12:40:00;99259.69;;;33.74;100.00
62712;BME280;48772;55.586;37.730;2023-08-06T12:42:26;99296.75;;;33.83;100.00
62712;BME280;48772;55.586;37.730;2023-08-06T12:44:52;99283.47;;;33.65;100.00
62712;BME280;48772;55.586;37.730;2023-08-06T12:47:18;99283.53;;;33.55;100.00
62712;BME280;48772;55.586;37.730;2023-08-06T12:49:45;99280.13;;;33.78;100.00
62712;BME280;48772;55.586;37.730;2023-08-06T12:52:11;99292.34;;;33.62;100.00
62712;BME280;48772;55.586;37.730;2023-08-06T12:54:41;99290.09;;;33.79;100.00
62712;BME280;48772;55.586;37.730;2023-08-06T12:57:07;99278.56;;;33.52;100.00